createdAt,value
2022-11-24T00:01:29.495Z,84.80
2022-11-24T00:04:07.064Z,90.57
2022-11-24T00:06:36.617Z,87.40
2022-11-24T00:09:06.168Z,78.47
2022-11-24T00:11:36.773Z,91.40
2022-11-24T00:14:06.564Z,94.47
2022-11-24T00:16:37.012Z,84.82
2022-11-24T00:19:07.818Z,109.68
2022-11-24T00:21:37.262Z,120.90
2022-11-24T00:24:05.841Z,115.03
2022-11-24T00:26:35.487Z,113.13
2022-11-24T00:29:06.786Z,113.45
2022-11-24T00:31:37.558Z,111.18
2022-11-24T00:34:10.271Z,99.63
2022-11-24T00:36:39.712Z,94.82
2022-11-24T00:39:13.896Z,91.65
2022-11-24T00:41:43.360Z,97.95
2022-11-24T00:44:11.668Z,89.35
2022-11-24T00:46:40.138Z,89.90
2022-11-24T00:49:08.564Z,113.32
2022-11-24T00:51:36.740Z,94.20
2022-11-24T00:54:05.750Z,109.53
2022-11-24T00:56:34.027Z,100.68
2022-11-24T00:59:02.210Z,97.75
2022-11-24T01:01:30.923Z,108.05
2022-11-24T01:04:00.782Z,99.55
2022-11-24T01:06:29.824Z,98.30
2022-11-24T01:08:58.556Z,106.82
2022-11-24T01:11:29.376Z,103.80
2022-11-24T01:13:59.973Z,105.40
2022-11-24T01:16:34.807Z,103.63
2022-11-24T01:19:03.248Z,108.47
2022-11-24T01:21:31.396Z,102.30
2022-11-24T01:23:59.672Z,122.78
2022-11-24T01:26:27.743Z,124.95
2022-11-24T01:28:57.765Z,106.00
2022-11-24T01:31:27.071Z,110.93
2022-11-24T01:33:55.560Z,109.47
2022-11-24T01:36:24.232Z,101.70
2022-11-24T01:38:52.791Z,98.13
2022-11-24T01:41:23.274Z,98.75
2022-11-24T01:43:53.181Z,101.53
2022-11-24T01:46:33.044Z,92.72
2022-11-24T01:49:33.606Z,92.38
2022-11-24T01:52:13.321Z,88.82
2022-11-24T01:54:50.388Z,87.43
2022-11-24T01:57:27.043Z,92.07
2022-11-24T02:00:03.328Z,100.90
2022-11-24T02:02:43.678Z,83.05
2022-11-24T02:05:39.583Z,96.70
2022-11-24T02:08:15.567Z,88.88
2022-11-24T02:10:46.161Z,79.63
2022-11-24T02:13:15.413Z,92.32
2022-11-24T02:15:43.672Z,91.78
2022-11-24T02:18:12.032Z,80.63
2022-11-24T02:20:40.215Z,83.95
2022-11-24T02:23:22.033Z,94.07
2022-11-24T02:25:56.233Z,82.50
2022-11-24T02:28:27.277Z,85.57
2022-11-24T02:30:55.674Z,81.05
2022-11-24T02:33:24.798Z,77.93
2022-11-24T02:35:53.480Z,71.43
2022-11-24T02:38:31.272Z,74.20
2022-11-24T02:41:02.620Z,79.93
2022-11-24T02:43:36.605Z,67.70
2022-11-24T02:46:04.849Z,75.75
2022-11-24T02:48:33.241Z,74.05
2022-11-24T02:51:01.289Z,68.03
2022-11-24T02:53:29.617Z,66.85
2022-11-24T02:55:58.142Z,83.93
2022-11-24T02:58:26.168Z,81.13
2022-11-24T03:00:54.698Z,68.45
2022-11-24T03:03:23.416Z,71.03
2022-11-24T03:05:51.563Z,78.25
2022-11-24T03:08:20.000Z,71.50
2022-11-24T03:10:48.392Z,74.20
2022-11-24T03:13:16.631Z,78.90
2022-11-24T03:15:44.957Z,65.28
2022-11-24T03:18:13.059Z,64.75
2022-11-24T03:20:41.296Z,74.88
2022-11-24T03:23:09.431Z,66.22
2022-11-24T03:25:37.682Z,71.45
2022-11-24T03:28:06.426Z,75.50
2022-11-24T03:30:34.596Z,70.03
2022-11-24T03:33:02.727Z,63.63
2022-11-24T03:35:30.933Z,67.03
2022-11-24T03:37:59.189Z,65.35
2022-11-24T03:40:27.233Z,60.58
2022-11-24T03:42:55.506Z,64.90
2022-11-24T03:45:45.956Z,65.00
2022-11-24T03:48:11.942Z,64.10
2022-11-24T03:50:40.285Z,70.85
2022-11-24T03:53:08.668Z,75.85
2022-11-24T03:55:36.897Z,66.47
2022-11-24T03:58:05.035Z,64.20
2022-11-24T04:00:33.160Z,63.53
2022-11-24T04:03:01.500Z,66.20
2022-11-24T04:05:29.605Z,61.15
2022-11-24T04:07:58.254Z,68.70
2022-11-24T04:10:26.538Z,67.43
2022-11-24T04:12:54.819Z,66.07
2022-11-24T04:15:22.952Z,54.78
2022-11-24T04:17:51.760Z,55.55
2022-11-24T04:20:20.073Z,56.25
2022-11-24T04:22:48.232Z,61.65
2022-11-24T04:25:16.369Z,58.58
2022-11-24T04:27:45.001Z,49.67
2022-11-24T04:30:13.392Z,74.50
2022-11-24T04:32:41.491Z,62.33
2022-11-24T04:35:09.964Z,69.63
2022-11-24T04:37:38.028Z,62.90
2022-11-24T04:40:08.884Z,67.72
2022-11-24T04:42:37.333Z,82.47
2022-11-24T04:45:06.863Z,72.35
2022-11-24T04:47:35.063Z,74.75
2022-11-24T04:50:03.321Z,77.95
2022-11-24T04:52:31.395Z,63.40
2022-11-24T04:54:59.629Z,77.72
2022-11-24T04:57:28.133Z,71.18
2022-11-24T04:59:56.548Z,79.88
2022-11-24T05:02:24.770Z,69.55
2022-11-24T05:04:53.135Z,67.93
2022-11-24T05:07:21.358Z,94.47
2022-11-24T05:09:59.336Z,81.90
2022-11-24T05:12:28.673Z,76.15
2022-11-24T05:14:56.813Z,78.78
2022-11-24T05:17:25.165Z,78.07
2022-11-24T05:19:53.414Z,70.75
2022-11-24T05:22:21.667Z,83.35
2022-11-24T05:24:49.873Z,78.32
2022-11-24T05:27:18.191Z,80.47
2022-11-24T05:29:46.256Z,81.97
2022-11-24T05:32:14.556Z,75.43
2022-11-24T05:34:42.710Z,84.85
2022-11-24T05:37:10.858Z,164.98
2022-11-24T05:39:39.283Z,221.52
2022-11-24T05:42:08.583Z,210.43
2022-11-24T05:44:36.894Z,153.00
2022-11-24T05:47:05.449Z,126.75
2022-11-24T05:49:33.836Z,100.75
2022-11-24T05:52:01.955Z,103.40
2022-11-24T05:54:30.194Z,84.35
2022-11-24T05:56:59.584Z,81.68
2022-11-24T05:59:27.769Z,82.47
2022-11-24T06:01:56.090Z,84.60
2022-11-24T06:04:24.330Z,80.40
2022-11-24T06:06:52.768Z,88.00
2022-11-24T06:09:21.316Z,81.65
2022-11-24T06:11:49.646Z,89.82
2022-11-24T06:14:17.902Z,83.35
2022-11-24T06:16:46.101Z,85.50
2022-11-24T06:19:14.310Z,83.35
2022-11-24T06:21:42.650Z,85.63
2022-11-24T06:24:10.878Z,108.00
2022-11-24T06:26:39.031Z,106.70
2022-11-24T06:29:07.392Z,101.43
2022-11-24T06:31:35.731Z,116.57
2022-11-24T06:34:07.562Z,113.00
2022-11-24T06:36:35.885Z,121.40
2022-11-24T06:39:04.246Z,108.85
2022-11-24T06:41:32.489Z,112.47
2022-11-24T06:44:04.029Z,114.20
2022-11-24T06:46:32.226Z,120.18
2022-11-24T06:49:00.574Z,115.32
2022-11-24T06:51:28.908Z,100.93
2022-11-24T06:53:56.949Z,94.28
2022-11-24T06:56:25.512Z,90.95
2022-11-24T06:58:54.404Z,91.10
2022-11-24T07:01:25.435Z,86.00
2022-11-24T07:03:55.176Z,84.65
2022-11-24T07:06:25.724Z,93.28
2022-11-24T07:08:53.978Z,94.28
2022-11-24T07:11:24.645Z,86.88
2022-11-24T07:13:56.671Z,84.53
2022-11-24T07:16:29.220Z,97.57
2022-11-24T07:18:58.374Z,88.45
2022-11-24T07:21:27.983Z,86.00
2022-11-24T07:23:57.847Z,87.20
2022-11-24T07:26:26.436Z,83.90
2022-11-24T07:28:54.773Z,86.05
2022-11-24T07:31:23.872Z,88.65
2022-11-24T07:33:54.166Z,92.75
2022-11-24T07:36:23.444Z,79.22
2022-11-24T07:38:51.937Z,101.78
2022-11-24T07:41:21.341Z,90.88
2022-11-24T07:43:49.949Z,100.28
2022-11-24T07:46:19.971Z,87.30
2022-11-24T07:48:48.788Z,86.18
2022-11-24T07:51:17.161Z,84.30
2022-11-24T07:53:46.694Z,90.03
2022-11-24T07:56:15.022Z,91.15
2022-11-24T07:58:45.980Z,80.18
2022-11-24T08:01:18.337Z,76.20
2022-11-24T08:03:47.407Z,75.57
2022-11-24T08:06:24.983Z,74.60
2022-11-24T08:08:55.254Z,68.15
2022-11-24T08:11:23.788Z,67.90
2022-11-24T08:13:52.312Z,58.42
2022-11-24T08:16:20.799Z,64.28
2022-11-24T08:18:54.666Z,66.30
2022-11-24T08:21:23.980Z,52.33
2022-11-24T08:23:56.790Z,48.47
2022-11-24T08:26:26.203Z,47.05
2022-11-24T08:28:59.314Z,46.83
2022-11-24T08:31:29.203Z,45.83
2022-11-24T08:33:57.704Z,53.92
2022-11-24T08:36:26.158Z,52.85
2022-11-24T08:38:59.167Z,44.15
2022-11-24T08:41:28.427Z,40.08
2022-11-24T08:43:58.083Z,48.95
2022-11-24T08:46:26.506Z,46.67
2022-11-24T08:48:55.529Z,43.72
2022-11-24T08:51:26.587Z,48.63
2022-11-24T08:53:59.645Z,45.45
2022-11-24T08:56:29.997Z,46.53
2022-11-24T08:58:58.773Z,48.50
2022-11-24T09:01:27.904Z,42.97
2022-11-24T09:03:56.448Z,42.25
2022-11-24T09:06:27.815Z,41.13
2022-11-24T09:08:56.318Z,35.55
2022-11-24T09:11:25.625Z,32.80
2022-11-24T09:13:54.925Z,29.48
2022-11-24T09:16:26.220Z,30.25
2022-11-24T09:19:02.870Z,34.70
2022-11-24T09:21:32.764Z,40.78
2022-11-24T09:24:01.336Z,30.92
2022-11-24T09:26:32.027Z,34.08
2022-11-24T09:29:02.267Z,31.98
2022-11-24T09:31:33.531Z,27.52
2022-11-24T09:34:03.568Z,25.20
2022-11-24T09:36:32.298Z,26.83
2022-11-24T09:39:00.573Z,30.40
2022-11-24T09:41:57.860Z,24.25
2022-11-24T09:44:44.766Z,22.08
2022-11-24T09:47:21.816Z,22.08
2022-11-24T09:50:01.485Z,24.38
2022-11-24T09:52:48.091Z,26.55
2022-11-24T09:55:37.644Z,26.65
2022-11-24T09:58:11.592Z,36.47
2022-11-24T10:00:40.154Z,28.50
2022-11-24T10:03:20.600Z,27.77
2022-11-24T10:05:51.393Z,30.83
2022-11-24T10:08:28.726Z,37.22
2022-11-24T10:11:03.425Z,33.67
2022-11-24T10:13:40.867Z,32.25
2022-11-24T10:16:32.110Z,36.22
2022-11-24T10:19:12.653Z,23.15
2022-11-24T10:21:53.187Z,29.80
2022-11-24T10:24:52.246Z,40.25
2022-11-24T10:27:27.385Z,31.08
2022-11-24T10:29:56.487Z,29.00
2022-11-24T10:32:32.853Z,25.67
2022-11-24T10:35:18.367Z,24.05
2022-11-24T10:38:01.618Z,22.25
2022-11-24T10:40:56.384Z,24.25
2022-11-24T10:43:29.678Z,39.45
2022-11-24T10:48:41.912Z,20.58
2022-11-24T10:51:28.734Z,21.45
2022-11-24T10:54:06.495Z,43.40
2022-11-24T10:56:45.365Z,32.40
2022-11-24T10:59:37.396Z,30.35
2022-11-24T11:04:53.049Z,20.63
2022-11-24T11:07:23.758Z,25.35
2022-11-24T11:10:12.672Z,25.15
2022-11-24T11:12:44.888Z,48.53
2022-11-24T11:15:31.919Z,31.10
2022-11-24T11:18:03.903Z,25.33
2022-11-24T11:20:35.382Z,37.53
2022-11-24T11:23:22.189Z,20.55
2022-11-24T11:25:50.458Z,16.48
2022-11-24T11:28:19.104Z,21.60
2022-11-24T11:31:17.913Z,24.92
2022-11-24T11:34:16.615Z,30.05
2022-11-24T11:36:52.639Z,27.45
2022-11-24T11:39:25.677Z,31.38
2022-11-24T11:42:06.732Z,25.70
2022-11-24T11:44:53.330Z,26.77
2022-11-24T11:47:27.890Z,24.25
2022-11-24T11:49:56.538Z,28.38
2022-11-24T11:52:24.860Z,30.60
2022-11-24T11:55:14.646Z,26.00
2022-11-24T11:57:57.510Z,19.83
2022-11-24T12:00:26.149Z,21.77
2022-11-24T12:03:33.418Z,21.45
2022-11-24T12:06:11.145Z,23.25
2022-11-24T12:09:18.046Z,25.05
2022-11-24T12:11:58.406Z,25.95
2022-11-24T12:14:45.196Z,22.50
2022-11-24T12:17:19.808Z,27.83
2022-11-24T12:20:17.318Z,23.95
2022-11-24T12:23:15.042Z,33.10
2022-11-24T12:26:09.154Z,30.40
2022-11-24T12:29:04.946Z,22.10
2022-11-24T12:32:13.600Z,27.67
2022-11-24T12:34:47.720Z,26.45
2022-11-24T12:37:24.827Z,23.95
2022-11-24T12:40:15.905Z,34.47
2022-11-24T12:43:20.748Z,26.85
2022-11-24T12:45:58.197Z,22.60
2022-11-24T12:48:29.379Z,32.33
2022-11-24T12:50:59.573Z,29.67
2022-11-24T12:53:34.011Z,31.60
2022-11-24T12:56:13.576Z,29.10
2022-11-24T12:58:44.552Z,26.65
2022-11-24T13:01:39.015Z,20.92
2022-11-24T13:04:42.443Z,24.30
2022-11-24T13:07:22.603Z,43.17
2022-11-24T13:13:01.397Z,37.13
2022-11-24T13:15:45.561Z,26.23
2022-11-24T13:18:47.002Z,30.48
2022-11-24T13:21:40.815Z,25.02
2022-11-24T13:24:19.395Z,46.35
2022-11-24T13:26:50.069Z,24.73
2022-11-24T13:29:38.480Z,35.10
2022-11-24T13:32:06.817Z,30.52
2022-11-24T13:34:41.009Z,31.70
2022-11-24T13:37:32.057Z,36.03
2022-11-24T13:40:23.825Z,43.83
2022-11-24T13:42:58.336Z,40.60
2022-11-24T13:45:42.034Z,40.00
2022-11-24T13:48:22.730Z,37.80
2022-11-24T13:50:51.527Z,32.28
2022-11-24T13:53:43.180Z,33.42
2022-11-24T13:56:14.461Z,67.80
2022-11-24T13:59:03.227Z,61.80
2022-11-24T14:01:37.247Z,29.98
2022-11-24T14:07:15.674Z,32.80
2022-11-24T14:09:50.658Z,45.92
2022-11-24T14:12:26.371Z,29.08
2022-11-24T14:15:13.672Z,36.60
2022-11-24T14:17:42.147Z,35.90
2022-11-24T14:20:23.338Z,42.03
2022-11-24T14:22:52.182Z,40.67
2022-11-24T14:25:32.583Z,58.00
2022-11-24T14:28:01.097Z,34.75
2022-11-24T14:30:29.247Z,43.85
2022-11-24T14:33:02.355Z,42.95
2022-11-24T14:35:31.812Z,49.28
2022-11-24T14:38:03.106Z,27.02
2022-11-24T14:40:40.297Z,57.15
2022-11-24T14:43:30.213Z,52.63
2022-11-24T14:46:11.510Z,31.90
2022-11-24T14:48:46.179Z,43.50
2022-11-24T14:51:27.430Z,37.40
2022-11-24T14:53:59.353Z,64.57
2022-11-24T14:56:30.655Z,39.55
2022-11-24T14:58:59.846Z,41.28
2022-11-24T15:01:27.996Z,54.45
2022-11-24T15:04:26.502Z,32.40
2022-11-24T15:07:17.539Z,24.35
2022-11-24T15:09:51.008Z,49.30
2022-11-24T15:12:28.556Z,54.58
2022-11-24T15:15:21.665Z,30.55
2022-11-24T15:18:23.904Z,53.95
2022-11-24T15:20:52.242Z,21.85
2022-11-24T15:23:31.743Z,27.27
2022-11-24T15:26:03.027Z,47.88
2022-11-24T15:28:31.866Z,62.50
2022-11-24T15:31:05.883Z,39.78
2022-11-24T15:33:34.243Z,25.52
2022-11-24T15:36:02.395Z,31.92
2022-11-24T15:38:30.764Z,34.13
2022-11-24T15:41:02.809Z,35.40
2022-11-24T15:43:41.604Z,37.67
2022-11-24T15:46:10.314Z,29.27
2022-11-24T15:48:38.781Z,36.72
2022-11-24T15:51:12.038Z,43.75
2022-11-24T15:53:44.763Z,53.13
2022-11-24T15:56:25.849Z,53.10
2022-11-24T15:58:54.205Z,32.47
2022-11-24T16:01:24.154Z,36.28
2022-11-24T16:03:52.416Z,35.10
2022-11-24T16:06:25.063Z,45.15
2022-11-24T16:08:54.620Z,36.40
2022-11-24T16:11:23.710Z,42.25
2022-11-24T16:13:54.047Z,49.67
2022-11-24T16:16:26.420Z,51.13
2022-11-24T16:21:22.648Z,50.17
2022-11-24T16:23:50.921Z,57.17
2022-11-24T16:26:19.206Z,42.10
2022-11-24T16:28:47.415Z,46.08
2022-11-24T16:31:16.113Z,42.85
2022-11-24T16:33:46.664Z,49.85
2022-11-24T16:36:15.257Z,40.25
2022-11-24T16:38:43.565Z,34.08
2022-11-24T16:41:12.079Z,31.05
2022-11-24T16:43:43.488Z,31.80
2022-11-24T16:46:20.528Z,28.95
2022-11-24T16:48:51.423Z,35.17
2022-11-24T16:51:21.821Z,25.10
2022-11-24T16:53:57.314Z,34.95
2022-11-24T16:56:25.713Z,25.25
2022-11-24T16:58:54.385Z,90.25
2022-11-24T17:01:23.212Z,36.08
2022-11-24T17:03:51.438Z,39.30
2022-11-24T17:06:19.807Z,64.97
2022-11-24T17:08:48.534Z,31.48
2022-11-24T17:11:22.399Z,49.05
2022-11-24T17:13:51.191Z,55.05
2022-11-24T17:16:21.652Z,55.30
2022-11-24T17:18:50.835Z,28.17
2022-11-24T17:21:20.128Z,60.72
2022-11-24T17:23:48.822Z,59.25
2022-11-24T17:26:18.364Z,41.35
2022-11-24T17:28:46.601Z,58.35
2022-11-24T17:31:32.975Z,55.55
2022-11-24T17:34:02.452Z,47.35
2022-11-24T17:36:32.927Z,50.72
2022-11-24T17:39:02.796Z,61.90
2022-11-24T17:41:31.588Z,59.83
2022-11-24T17:44:00.250Z,84.25
2022-11-24T17:46:30.478Z,170.45
2022-11-24T17:48:58.878Z,199.77
2022-11-24T17:51:27.799Z,49.17
2022-11-24T17:57:00.724Z,65.47
2022-11-24T17:59:28.870Z,39.70
2022-11-24T18:01:57.266Z,94.05
2022-11-24T18:04:25.475Z,42.10
2022-11-24T18:06:53.917Z,42.33
2022-11-24T18:09:22.174Z,35.30
2022-11-24T18:11:50.389Z,62.63
2022-11-24T18:14:18.778Z,48.25
2022-11-24T18:16:47.020Z,48.65
2022-11-24T18:19:15.326Z,49.17
2022-11-24T18:21:43.529Z,46.25
2022-11-24T18:24:12.563Z,50.80
2022-11-24T18:26:41.823Z,71.75
2022-11-24T18:29:11.019Z,61.90
2022-11-24T18:31:39.788Z,57.08
2022-11-24T18:34:08.445Z,83.60
2022-11-24T18:36:37.254Z,45.97
2022-11-24T18:39:08.182Z,47.85
2022-11-24T18:41:37.238Z,90.37
2022-11-24T18:44:05.505Z,132.60
2022-11-24T18:46:33.819Z,109.85
2022-11-24T18:49:02.134Z,123.68
2022-11-24T18:51:30.401Z,68.70
2022-11-24T18:53:58.733Z,62.22
2022-11-24T18:56:27.327Z,59.75
2022-11-24T18:58:57.123Z,111.93
2022-11-24T19:01:28.511Z,108.63
2022-11-24T19:03:59.043Z,160.18
2022-11-24T19:06:35.882Z,131.10
2022-11-24T19:09:09.888Z,120.30
2022-11-24T19:11:40.002Z,165.63
2022-11-24T19:14:11.078Z,127.85
2022-11-24T19:16:39.889Z,126.45
2022-11-24T19:19:08.883Z,124.28
2022-11-24T19:21:39.532Z,155.65
2022-11-24T19:24:40.535Z,150.63
2022-11-24T19:27:09.023Z,77.28
2022-11-24T19:29:42.835Z,64.85
2022-11-24T19:32:11.474Z,51.10
2022-11-24T19:34:39.817Z,42.58
2022-11-24T19:37:08.054Z,49.97
2022-11-24T19:39:36.409Z,83.95
2022-11-24T19:42:04.953Z,87.28
2022-11-24T19:44:33.734Z,89.28
2022-11-24T19:47:02.384Z,131.68
2022-11-24T19:49:30.829Z,126.97
2022-11-24T19:51:58.980Z,89.43
2022-11-24T19:54:27.326Z,42.13
2022-11-24T19:56:55.700Z,67.80
2022-11-24T19:59:24.533Z,45.28
2022-11-24T20:01:52.755Z,56.30
2022-11-24T20:04:21.458Z,63.53
2022-11-24T20:06:49.817Z,70.38
2022-11-24T20:09:19.510Z,57.63
2022-11-24T20:11:47.968Z,63.30
2022-11-24T20:14:17.548Z,63.00
2022-11-24T20:16:46.086Z,53.05
2022-11-24T20:19:15.979Z,41.40
2022-11-24T20:21:45.748Z,126.70
2022-11-24T20:24:24.245Z,73.63
2022-11-24T20:26:55.785Z,192.85
2022-11-24T20:29:24.599Z,104.70
2022-11-24T20:31:55.280Z,120.13
2022-11-24T20:34:24.637Z,120.25
2022-11-24T20:36:53.271Z,101.35
2022-11-24T20:39:24.953Z,96.13
2022-11-24T20:41:54.450Z,72.82
2022-11-24T20:44:23.790Z,94.93
2022-11-24T20:46:52.209Z,116.40
2022-11-24T20:49:20.964Z,107.68
2022-11-24T20:51:49.605Z,97.57
2022-11-24T20:54:19.150Z,56.72
2022-11-24T20:56:48.031Z,56.78
2022-11-24T20:59:20.397Z,73.50
2022-11-24T21:01:50.132Z,74.78
2022-11-24T21:04:21.425Z,51.80
2022-11-24T21:06:50.160Z,68.80
2022-11-24T21:09:18.682Z,84.78
2022-11-24T21:11:47.768Z,61.15
2022-11-24T21:14:16.112Z,71.15
2022-11-24T21:16:45.123Z,79.63
2022-11-24T21:19:15.866Z,131.20
2022-11-24T21:21:44.112Z,60.13
2022-11-24T21:24:20.193Z,55.13
2022-11-24T21:26:48.672Z,69.60
2022-11-24T21:29:17.666Z,82.57
2022-11-24T21:31:46.209Z,91.78
2022-11-24T21:34:18.511Z,45.67
2022-11-24T21:36:47.404Z,60.30
2022-11-24T21:39:16.522Z,48.92
2022-11-24T21:41:45.235Z,63.92
2022-11-24T21:44:14.530Z,89.25
2022-11-24T21:46:48.111Z,73.07
2022-11-24T21:49:17.970Z,65.25
2022-11-24T21:51:46.359Z,37.83
2022-11-24T21:54:14.762Z,42.55
2022-11-24T21:56:43.377Z,28.33
2022-11-24T21:59:11.585Z,33.85
2022-11-24T22:01:40.072Z,53.05
2022-11-24T22:04:08.678Z,65.10
2022-11-24T22:06:37.029Z,62.63
2022-11-24T22:09:05.361Z,34.10
2022-11-24T22:11:33.722Z,43.38
2022-11-24T22:14:01.960Z,86.30
2022-11-24T22:16:30.498Z,85.72
2022-11-24T22:19:00.786Z,84.97
2022-11-24T22:21:29.416Z,59.55
2022-11-24T22:23:57.926Z,44.63
2022-11-24T22:26:27.753Z,49.03
2022-11-24T22:28:57.140Z,37.30
2022-11-24T22:31:28.088Z,28.65
2022-11-24T22:33:58.073Z,38.63
2022-11-24T22:36:28.859Z,75.40
2022-11-24T22:39:02.408Z,55.80
2022-11-24T22:41:32.192Z,68.38
2022-11-24T22:44:00.955Z,48.17
2022-11-24T22:46:31.489Z,31.35
2022-11-24T22:49:01.785Z,48.00
2022-11-24T22:51:33.353Z,52.55
2022-11-24T22:54:03.907Z,59.72
2022-11-24T22:56:33.420Z,63.35
2022-11-24T22:59:02.879Z,54.60
2022-11-24T23:01:33.118Z,27.42
2022-11-24T23:04:01.743Z,25.75
2022-11-24T23:06:32.049Z,25.17
2022-11-24T23:09:02.120Z,28.83
2022-11-24T23:11:38.723Z,35.33
2022-11-24T23:14:15.120Z,42.40
2022-11-24T23:16:43.943Z,50.08
2022-11-24T23:19:12.200Z,40.28
2022-11-24T23:21:40.429Z,36.38
2022-11-24T23:24:10.984Z,37.88
2022-11-24T23:26:41.372Z,37.65
2022-11-24T23:29:11.709Z,33.00
2022-11-24T23:31:40.396Z,23.52
2022-11-24T23:34:09.306Z,22.30
2022-11-24T23:36:37.710Z,26.52
2022-11-24T23:39:11.763Z,34.67
2022-11-24T23:41:40.470Z,41.17
2022-11-24T23:44:08.860Z,52.67
2022-11-24T23:46:37.026Z,37.05
2022-11-24T23:49:05.421Z,43.83
2022-11-24T23:51:34.781Z,47.72
2022-11-24T23:54:03.140Z,43.63
2022-11-24T23:56:33.276Z,34.13
2022-11-24T23:59:03.009Z,15.90
